Terminal Aerodrome Forecast
Issued by NWS

Home | Current Version | Previous Version | Text Only | Print | Product List | Glossary On
Versions: 1 2 3 4 5 6 7 8 9 10 11 12 13 14 15 16 17 18
000
FTUS43 KLSX 291700
TAFUIN
TAF
KUIN 291721Z 2918/3018 22009KT P6SM -SHRA SCT035 BKN100
     FM292100 23008KT P6SM SCT035 BKN120
     FM300300 17006KT 4SM -TSRA BR BKN030CB
     FM300800 20006KT P6SM -SHRA SCT015 BKN020
     FM301200 30007KT 5SM BR OVC010=

USA.gov is the U.S. government's official web portal to all federal, state and local government web resources and services.